sensor_id;sensor_type;location;lat;lon;timestamp;pressure;altitude;pressure_sealevel;temperature
70389;BMP280;58659;49.050;8.530;2022-09-29T00:00:22;97906.75;;;5.68
70389;BMP280;58659;49.050;8.530;2022-09-29T00:02:47;97901.59;;;5.72
70389;BMP280;58659;49.050;8.530;2022-09-29T00:05:12;97889.38;;;5.72
70389;BMP280;58659;49.050;8.530;2022-09-29T00:07:37;97884.59;;;5.74
70389;BMP280;58659;49.050;8.530;2022-09-29T00:10:03;97874.66;;;5.80
70389;BMP280;58659;49.050;8.530;2022-09-29T00:12:29;97865.78;;;5.81
70389;BMP280;58659;49.050;8.530;2022-09-29T00:14:54;97862.47;;;5.84
70389;BMP280;58659;49.050;8.530;2022-09-29T00:17:19;97845.81;;;5.88
70389;BMP280;58659;49.050;8.530;2022-09-29T00:19:47;97855.84;;;5.93
70389;BMP280;58659;49.050;8.530;2022-09-29T00:22:12;97855.13;;;5.96
70389;BMP280;58659;49.050;8.530;2022-09-29T00:24:38;97846.25;;;5.97
70389;BMP280;58659;49.050;8.530;2022-09-29T00:27:03;97846.25;;;5.97
70389;BMP280;58659;49.050;8.530;2022-09-29T00:29:28;97842.56;;;5.98
70389;BMP280;58659;49.050;8.530;2022-09-29T00:31:54;97839.63;;;6.00
70389;BMP280;58659;49.050;8.530;2022-09-29T00:34:19;97829.25;;;6.03
70389;BMP280;58659;49.050;8.530;2022-09-29T00:36:44;97823.34;;;6.06
70389;BMP280;58659;49.050;8.530;2022-09-29T00:39:10;97815.59;;;6.10
70389;BMP280;58659;49.050;8.530;2022-09-29T00:41:36;97813.00;;;6.17
70389;BMP280;58659;49.050;8.530;2022-09-29T00:48:53;97802.72;;;6.45
70389;BMP280;58659;49.050;8.530;2022-09-29T00:51:19;97806.84;;;6.53
70389;BMP280;58659;49.050;8.530;2022-09-29T00:53:44;97816.84;;;6.58
70389;BMP280;58659;49.050;8.530;2022-09-29T00:56:11;97816.09;;;6.58
70389;BMP280;58659;49.050;8.530;2022-09-29T00:58:41;97825.75;;;6.65
70389;BMP280;58659;49.050;8.530;2022-09-29T01:01:09;97827.63;;;6.71
70389;BMP280;58659;49.050;8.530;2022-09-29T01:03:36;97834.66;;;6.74
70389;BMP280;58659;49.050;8.530;2022-09-29T01:06:05;97856.16;;;6.68
70389;BMP280;58659;49.050;8.530;2022-09-29T01:08:41;97881.28;;;6.42
70389;BMP280;58659;49.050;8.530;2022-09-29T01:11:08;97903.84;;;6.38
70389;BMP280;58659;49.050;8.530;2022-09-29T01:13:35;97910.53;;;6.43
70389;BMP280;58659;49.050;8.530;2022-09-29T01:16:01;97910.59;;;6.53
70389;BMP280;58659;49.050;8.530;2022-09-29T01:18:26;97918.00;;;6.58
70389;BMP280;58659;49.050;8.530;2022-09-29T01:42:30;97939.09;;;6.57
70389;BMP280;58659;49.050;8.530;2022-09-29T01:44:58;97936.91;;;6.63
70389;BMP280;58659;49.050;8.530;2022-09-29T01:49:55;97960.25;;;6.63
70389;BMP280;58659;49.050;8.530;2022-09-29T01:52:26;97962.13;;;6.62
70389;BMP280;58659;49.050;8.530;2022-09-29T01:54:54;97967.25;;;6.51
70389;BMP280;58659;49.050;8.530;2022-09-29T01:57:31;97971.31;;;6.49
70389;BMP280;58659;49.050;8.530;2022-09-29T02:02:29;97938.75;;;6.58
70389;BMP280;58659;49.050;8.530;2022-09-29T02:04:57;97931.38;;;6.68
70389;BMP280;58659;49.050;8.530;2022-09-29T02:07:38;97919.16;;;6.72
70389;BMP280;58659;49.050;8.530;2022-09-29T02:13:07;97906.97;;;6.79
70389;BMP280;58659;49.050;8.530;2022-09-29T02:15:34;97909.19;;;6.81
70389;BMP280;58659;49.050;8.530;2022-09-29T02:18:05;97910.69;;;6.89
70389;BMP280;58659;49.050;8.530;2022-09-29T02:20:34;97915.53;;;6.90
70389;BMP280;58659;49.050;8.530;2022-09-29T02:22:59;97930.31;;;6.86
70389;BMP280;58659;49.050;8.530;2022-09-29T02:25:24;97943.66;;;6.78
70389;BMP280;58659;49.050;8.530;2022-09-29T02:27:50;97957.34;;;6.71
70389;BMP280;58659;49.050;8.530;2022-09-29T02:30:15;97969.16;;;6.62
70389;BMP280;58659;49.050;8.530;2022-09-29T02:32:41;97965.06;;;6.53
70389;BMP280;58659;49.050;8.530;2022-09-29T02:35:06;97981.34;;;6.50
70389;BMP280;58659;49.050;8.530;2022-09-29T02:55:27;97990.16;;;6.35
70389;BMP280;58659;49.050;8.530;2022-09-29T02:57:57;97994.59;;;6.38
70389;BMP280;58659;49.050;8.530;2022-09-29T03:00:23;97998.28;;;6.37
70389;BMP280;58659;49.050;8.530;2022-09-29T03:02:50;97993.84;;;6.34
70389;BMP280;58659;49.050;8.530;2022-09-29T03:05:16;97992.00;;;6.35
70389;BMP280;58659;49.050;8.530;2022-09-29T03:07:43;98000.50;;;6.35
70389;BMP280;58659;49.050;8.530;2022-09-29T03:10:08;97996.81;;;6.36
70389;BMP280;58659;49.050;8.530;2022-09-29T03:12:34;97994.22;;;6.36
70389;BMP280;58659;49.050;8.530;2022-09-29T03:15:00;97999.41;;;6.36
70389;BMP280;58659;49.050;8.530;2022-09-29T03:17:25;97996.81;;;6.36
70389;BMP280;58659;49.050;8.530;2022-09-29T03:19:50;98000.16;;;6.37
70389;BMP280;58659;49.050;8.530;2022-09-29T03:22:15;97997.56;;;6.37
70389;BMP280;58659;49.050;8.530;2022-09-29T03:24:42;97989.03;;;6.36
70389;BMP280;58659;49.050;8.530;2022-09-29T03:27:07;97985.69;;;6.36
70389;BMP280;58659;49.050;8.530;2022-09-29T03:29:34;97990.50;;;6.34
70389;BMP280;58659;49.050;8.530;2022-09-29T03:31:59;97985.66;;;6.32
70389;BMP280;58659;49.050;8.530;2022-09-29T03:34:24;97979.03;;;6.35
70389;BMP280;58659;49.050;8.530;2022-09-29T03:36:50;97976.81;;;6.37
70389;BMP280;58659;49.050;8.530;2022-09-29T03:39:15;97979.03;;;6.35
70389;BMP280;58659;49.050;8.530;2022-09-29T03:41:40;97977.50;;;6.27
70389;BMP280;58659;49.050;8.530;2022-09-29T03:44:05;97981.09;;;6.15
70389;BMP280;58659;49.050;8.530;2022-09-29T03:46:31;97981.78;;;6.05
70389;BMP280;58659;49.050;8.530;2022-09-29T03:48:56;97985.06;;;5.95
70389;BMP280;58659;49.050;8.530;2022-09-29T03:51:22;97984.97;;;5.84
70389;BMP280;58659;49.050;8.530;2022-09-29T03:53:47;97986.75;;;5.77
70389;BMP280;58659;49.050;8.530;2022-09-29T03:56:12;97970.81;;;5.71
70389;BMP280;58659;49.050;8.530;2022-09-29T03:58:37;97958.53;;;5.64
70389;BMP280;58659;49.050;8.530;2022-09-29T04:01:02;97960.72;;;5.62
70389;BMP280;58659;49.050;8.530;2022-09-29T04:03:28;97958.53;;;5.64
70389;BMP280;58659;49.050;8.530;2022-09-29T04:05:53;97965.91;;;5.62
70389;BMP280;58659;49.050;8.530;2022-09-29T04:08:18;97965.91;;;5.62
70389;BMP280;58659;49.050;8.530;2022-09-29T04:10:45;97955.16;;;5.60
70389;BMP280;58659;49.050;8.530;2022-09-29T04:13:10;97958.84;;;5.56
70389;BMP280;58659;49.050;8.530;2022-09-29T04:15:35;97959.97;;;5.58
70389;BMP280;58659;49.050;8.530;2022-09-29T04:18:01;97956.38;;;5.70
70389;BMP280;58659;49.050;8.530;2022-09-29T04:20:26;97949.78;;;5.80
70389;BMP280;58659;49.050;8.530;2022-09-29T04:22:51;97943.16;;;5.86
70389;BMP280;58659;49.050;8.530;2022-09-29T04:25:16;97942.44;;;5.89
70389;BMP280;58659;49.050;8.530;2022-09-29T04:27:42;97945.44;;;5.94
70389;BMP280;58659;49.050;8.530;2022-09-29T04:30:07;97947.66;;;5.96
70389;BMP280;58659;49.050;8.530;2022-09-29T04:32:33;97951.38;;;5.95
70389;BMP280;58659;49.050;8.530;2022-09-29T04:34:58;97948.00;;;5.91
70389;BMP280;58659;49.050;8.530;2022-09-29T04:37:23;97945.03;;;5.89
70389;BMP280;58659;49.050;8.530;2022-09-29T04:39:48;97945.78;;;5.93
70389;BMP280;58659;49.050;8.530;2022-09-29T04:42:14;97940.28;;;5.98
70389;BMP280;58659;49.050;8.530;2022-09-29T04:44:40;97943.22;;;5.96
70389;BMP280;58659;49.050;8.530;2022-09-29T04:47:05;97944.38;;;6.02
70389;BMP280;58659;49.050;8.530;2022-09-29T04:49:30;97939.56;;;6.04
70389;BMP280;58659;49.050;8.530;2022-09-29T04:51:55;97950.28;;;6.03
70389;BMP280;58659;49.050;8.530;2022-09-29T04:54:21;97952.91;;;5.99
70389;BMP280;58659;49.050;8.530;2022-09-29T04:56:49;97967.22;;;5.83
70389;BMP280;58659;49.050;8.530;2022-09-29T04:59:14;97980.78;;;5.73
70389;BMP280;58659;49.050;8.530;2022-09-29T05:01:41;97994.06;;;5.64
70389;BMP280;58659;49.050;8.530;2022-09-29T05:04:07;97989.22;;;5.62
70389;BMP280;58659;49.050;8.530;2022-09-29T05:06:33;97984.50;;;5.72
70389;BMP280;58659;49.050;8.530;2022-09-29T05:09:03;97981.94;;;5.79
70389;BMP280;58659;49.050;8.530;2022-09-29T05:11:28;97979.03;;;5.84
70389;BMP280;58659;49.050;8.530;2022-09-29T05:13:53;97970.94;;;5.89
70389;BMP280;58659;49.050;8.530;2022-09-29T05:16:19;97976.50;;;5.91
70389;BMP280;58659;49.050;8.530;2022-09-29T05:18:44;97980.97;;;5.94
70389;BMP280;58659;49.050;8.530;2022-09-29T05:21:09;97967.69;;;5.99
70389;BMP280;58659;49.050;8.530;2022-09-29T05:23:34;97978.09;;;6.06
70389;BMP280;58659;49.050;8.530;2022-09-29T05:26:01;97975.88;;;6.08
70389;BMP280;58659;49.050;8.530;2022-09-29T05:28:26;97968.53;;;6.14
70389;BMP280;58659;49.050;8.530;2022-09-29T05:30:51;97972.97;;;6.13
70389;BMP280;58659;49.050;8.530;2022-09-29T05:33:16;97978.09;;;6.06
70389;BMP280;58659;49.050;8.530;2022-09-29T05:35:42;97979.91;;;5.98
70389;BMP280;58659;49.050;8.530;2022-09-29T05:38:07;97984.66;;;5.93
70389;BMP280;58659;49.050;8.530;2022-09-29T05:40:32;97990.25;;;5.95
70389;BMP280;58659;49.050;8.530;2022-09-29T05:42:57;97990.25;;;5.95
70389;BMP280;58659;49.050;8.530;2022-09-29T05:45:23;97991.41;;;6.01
70389;BMP280;58659;49.050;8.530;2022-09-29T05:47:48;97985.88;;;6.06
70389;BMP280;58659;49.050;8.530;2022-09-29T05:50:14;97986.25;;;6.08
70389;BMP280;58659;49.050;8.530;2022-09-29T05:52:39;97991.13;;;6.13
70389;BMP280;58659;49.050;8.530;2022-09-29T05:55:04;97989.28;;;6.17
70389;BMP280;58659;49.050;8.530;2022-09-29T05:57:30;98000.41;;;6.21
70389;BMP280;58659;49.050;8.530;2022-09-29T05:59:55;97992.69;;;6.25
70389;BMP280;58659;49.050;8.530;2022-09-29T06:02:21;97994.16;;;6.29
70389;BMP280;58659;49.050;8.530;2022-09-29T06:04:46;97998.25;;;6.30
70389;BMP280;58659;49.050;8.530;2022-09-29T06:07:11;98006.41;;;6.32
70389;BMP280;58659;49.050;8.530;2022-09-29T06:09:36;97993.84;;;6.34
70389;BMP280;58659;49.050;8.530;2022-09-29T06:12:02;97997.56;;;6.37
70389;BMP280;58659;49.050;8.530;2022-09-29T06:14:27;98014.63;;;6.41
70389;BMP280;58659;49.050;8.530;2022-09-29T06:16:53;98011.69;;;6.46
70389;BMP280;58659;49.050;8.530;2022-09-29T06:19:18;98015.38;;;6.45
70389;BMP280;58659;49.050;8.530;2022-09-29T06:21:43;98022.06;;;6.46
70389;BMP280;58659;49.050;8.530;2022-09-29T06:24:08;98015.38;;;6.45
70389;BMP280;58659;49.050;8.530;2022-09-29T06:26:33;98018.75;;;6.49
70389;BMP280;58659;49.050;8.530;2022-09-29T06:28:59;98007.31;;;6.61
70389;BMP280;58659;49.050;8.530;2022-09-29T06:31:26;97992.53;;;6.69
70389;BMP280;58659;49.050;8.530;2022-09-29T06:33:51;97989.63;;;6.81
70389;BMP280;58659;49.050;8.530;2022-09-29T06:36:19;97994.44;;;6.86
70389;BMP280;58659;49.050;8.530;2022-09-29T06:39:05;97992.63;;;6.97
70389;BMP280;58659;49.050;8.530;2022-09-29T06:41:31;97968.56;;;7.07
70389;BMP280;58659;49.050;8.530;2022-09-29T06:43:57;97961.56;;;7.32
70389;BMP280;58659;49.050;8.530;2022-09-29T06:46:23;97968.66;;;7.64
70389;BMP280;58659;49.050;8.530;2022-09-29T06:48:50;97981.66;;;7.71
70389;BMP280;58659;49.050;8.530;2022-09-29T06:51:16;97979.41;;;7.87
70389;BMP280;58659;49.050;8.530;2022-09-29T06:53:41;97990.56;;;7.94
70389;BMP280;58659;49.050;8.530;2022-09-29T06:56:06;98008.00;;;7.97
70389;BMP280;58659;49.050;8.530;2022-09-29T06:58:33;98018.41;;;8.05
70389;BMP280;58659;49.050;8.530;2022-09-29T07:00:59;98024.72;;;8.07
70389;BMP280;58659;49.050;8.530;2022-09-29T07:03:24;98040.31;;;8.14
70389;BMP280;58659;49.050;8.530;2022-09-29T07:05:50;98047.75;;;8.26
70389;BMP280;58659;49.050;8.530;2022-09-29T07:08:15;98046.97;;;8.36
70389;BMP280;58659;49.050;8.530;2022-09-29T07:10:40;98047.69;;;8.51
70389;BMP280;58659;49.050;8.530;2022-09-29T07:13:06;98062.16;;;8.59
70389;BMP280;58659;49.050;8.530;2022-09-29T07:15:33;98078.13;;;8.65
70389;BMP280;58659;49.050;8.530;2022-09-29T07:17:59;98090.75;;;8.70
70389;BMP280;58659;49.050;8.530;2022-09-29T07:20:25;98090.00;;;8.73
70389;BMP280;58659;49.050;8.530;2022-09-29T07:22:55;98088.84;;;8.91
70389;BMP280;58659;49.050;8.530;2022-09-29T07:25:20;98082.88;;;8.98
70389;BMP280;58659;49.050;8.530;2022-09-29T07:27:46;98086.16;;;9.16
70389;BMP280;58659;49.050;8.530;2022-09-29T07:30:12;98067.47;;;9.32
70389;BMP280;58659;49.050;8.530;2022-09-29T07:32:38;98062.88;;;9.46
70389;BMP280;58659;49.050;8.530;2022-09-29T07:35:03;98067.97;;;9.64
70389;BMP280;58659;49.050;8.530;2022-09-29T07:37:30;98108.94;;;9.67
70389;BMP280;58659;49.050;8.530;2022-09-29T07:39:55;98065.41;;;9.61
70389;BMP280;58659;49.050;8.530;2022-09-29T07:42:20;98116.22;;;9.90
70389;BMP280;58659;49.050;8.530;2022-09-29T07:44:46;98077.66;;;10.15
70389;BMP280;58659;49.050;8.530;2022-09-29T07:47:11;98105.41;;;10.39
70389;BMP280;58659;49.050;8.530;2022-09-29T07:49:37;98141.97;;;10.73
70389;BMP280;58659;49.050;8.530;2022-09-29T07:52:03;98180.66;;;10.85
70389;BMP280;58659;49.050;8.530;2022-09-29T07:54:28;98220.06;;;10.98
70389;BMP280;58659;49.050;8.530;2022-09-29T07:56:55;98239.75;;;11.10
70389;BMP280;58659;49.050;8.530;2022-09-29T07:59:20;98247.44;;;11.20
70389;BMP280;58659;49.050;8.530;2022-09-29T08:01:45;98258.16;;;11.33
70389;BMP280;58659;49.050;8.530;2022-09-29T08:04:11;98261.88;;;11.35
70389;BMP280;58659;49.050;8.530;2022-09-29T08:06:36;98309.94;;;11.45
70389;BMP280;58659;49.050;8.530;2022-09-29T08:09:01;98346.16;;;11.46
70389;BMP280;58659;49.050;8.530;2022-09-29T08:11:26;98324.66;;;11.66
70389;BMP280;58659;49.050;8.530;2022-09-29T08:13:52;98391.50;;;11.70
70389;BMP280;58659;49.050;8.530;2022-09-29T08:16:17;98383.09;;;11.86
70389;BMP280;58659;49.050;8.530;2022-09-29T08:18:43;98447.94;;;11.68
70389;BMP280;58659;49.050;8.530;2022-09-29T08:21:09;98401.16;;;11.77
70389;BMP280;58659;49.050;8.530;2022-09-29T08:23:35;98433.72;;;11.69
70389;BMP280;58659;49.050;8.530;2022-09-29T08:26:02;98413.63;;;11.96
70389;BMP280;58659;49.050;8.530;2022-09-29T08:28:29;98407.03;;;12.45
70389;BMP280;58659;49.050;8.530;2022-09-29T08:30:54;98441.78;;;12.76
70389;BMP280;58659;49.050;8.530;2022-09-29T08:33:19;98470.84;;;12.85
70389;BMP280;58659;49.050;8.530;2022-09-29T08:35:44;98491.03;;;12.88
70389;BMP280;58659;49.050;8.530;2022-09-29T08:38:10;98458.75;;;13.18
70389;BMP280;58659;49.050;8.530;2022-09-29T08:40:35;98492.53;;;13.35
70389;BMP280;58659;49.050;8.530;2022-09-29T08:45:34;98512.69;;;14.04
70389;BMP280;58659;49.050;8.530;2022-09-29T08:48:12;98530.59;;;14.29
70389;BMP280;58659;49.050;8.530;2022-09-29T08:50:41;98515.81;;;14.74
70389;BMP280;58659;49.050;8.530;2022-09-29T08:53:07;98529.28;;;14.93
70389;BMP280;58659;49.050;8.530;2022-09-29T08:55:39;98570.06;;;15.33
70389;BMP280;58659;49.050;8.530;2022-09-29T08:58:08;98569.25;;;15.52
70389;BMP280;58659;49.050;8.530;2022-09-29T09:00:37;98568.28;;;15.75
70389;BMP280;58659;49.050;8.530;2022-09-29T09:11:00;98580.75;;;15.26
70389;BMP280;58659;49.050;8.530;2022-09-29T09:13:40;98587.81;;;14.97
70389;BMP280;58659;49.050;8.530;2022-09-29T09:16:21;98586.03;;;14.54
70389;BMP280;58659;49.050;8.530;2022-09-29T09:24:04;98575.59;;;13.92
70389;BMP280;58659;49.050;8.530;2022-09-29T09:29:04;98572.88;;;15.26
70389;BMP280;58659;49.050;8.530;2022-09-29T09:34:00;98586.28;;;14.80
70389;BMP280;58659;49.050;8.530;2022-09-29T09:36:29;98584.53;;;13.94
70389;BMP280;58659;49.050;8.530;2022-09-29T09:38:58;98586.50;;;14.10
70389;BMP280;58659;49.050;8.530;2022-09-29T09:41:25;98578.09;;;14.18
70389;BMP280;58659;49.050;8.530;2022-09-29T09:43:53;98584.09;;;14.19
70389;BMP280;58659;49.050;8.530;2022-09-29T09:46:22;98584.38;;;14.44
70389;BMP280;58659;49.050;8.530;2022-09-29T09:54:00;98591.72;;;14.89
70389;BMP280;58659;49.050;8.530;2022-09-29T09:56:34;98584.28;;;14.48
70389;BMP280;58659;49.050;8.530;2022-09-29T10:01:31;98585.69;;;14.72
70389;BMP280;58659;49.050;8.530;2022-09-29T10:03:57;98586.78;;;14.74
70389;BMP280;58659;49.050;8.530;2022-09-29T10:06:23;98594.22;;;14.76
70389;BMP280;58659;49.050;8.530;2022-09-29T10:08:49;98588.69;;;14.90
70389;BMP280;58659;49.050;8.530;2022-09-29T10:13:39;98603.34;;;15.23
70389;BMP280;58659;49.050;8.530;2022-09-29T10:16:12;98592.16;;;15.35
70389;BMP280;58659;49.050;8.530;2022-09-29T10:18:40;98601.63;;;15.49
70389;BMP280;58659;49.050;8.530;2022-09-29T10:23:50;98603.09;;;15.66
70389;BMP280;58659;49.050;8.530;2022-09-29T10:26:17;98608.69;;;16.92
70389;BMP280;58659;49.050;8.530;2022-09-29T10:28:56;98611.59;;;18.01
70389;BMP280;58659;49.050;8.530;2022-09-29T10:31:29;98613.91;;;18.20
70389;BMP280;58659;49.050;8.530;2022-09-29T10:34:01;98609.94;;;17.60
70389;BMP280;58659;49.050;8.530;2022-09-29T10:36:32;98610.56;;;17.30
70389;BMP280;58659;49.050;8.530;2022-09-29T10:39:27;98606.38;;;16.82
70389;BMP280;58659;49.050;8.530;2022-09-29T10:41:53;98607.59;;;16.39
70389;BMP280;58659;49.050;8.530;2022-09-29T10:44:19;98613.16;;;16.29
70389;BMP280;58659;49.050;8.530;2022-09-29T10:49:20;98605.94;;;16.17
70389;BMP280;58659;49.050;8.530;2022-09-29T10:51:52;98606.41;;;15.99
70389;BMP280;58659;49.050;8.530;2022-09-29T10:54:18;98604.69;;;15.92
70389;BMP280;58659;49.050;8.530;2022-09-29T10:56:46;98609.25;;;15.92
70389;BMP280;58659;49.050;8.530;2022-09-29T10:59:12;98610.84;;;16.02
70389;BMP280;58659;49.050;8.530;2022-09-29T11:01:42;98606.31;;;16.03
70389;BMP280;58659;49.050;8.530;2022-09-29T11:04:14;98601.06;;;16.03
70389;BMP280;58659;49.050;8.530;2022-09-29T11:06:41;98609.06;;;16.12
70389;BMP280;58659;49.050;8.530;2022-09-29T11:09:28;98597.53;;;16.22
70389;BMP280;58659;49.050;8.530;2022-09-29T11:11:52;98604.00;;;16.33
70389;BMP280;58659;49.050;8.530;2022-09-29T11:16:53;98601.28;;;16.49
70389;BMP280;58659;49.050;8.530;2022-09-29T11:19:19;98604.84;;;16.43
70389;BMP280;58659;49.050;8.530;2022-09-29T11:34:42;98612.00;;;16.42
70389;BMP280;58659;49.050;8.530;2022-09-29T11:37:25;98613.97;;;16.26
70389;BMP280;58659;49.050;8.530;2022-09-29T11:40:06;98611.22;;;16.17
70389;BMP280;58659;49.050;8.530;2022-09-29T11:45:21;98618.31;;;16.04
70389;BMP280;58659;49.050;8.530;2022-09-29T11:55:27;98613.59;;;15.82
70389;BMP280;58659;49.050;8.530;2022-09-29T11:58:00;98621.66;;;15.91
70389;BMP280;58659;49.050;8.530;2022-09-29T12:03:08;98616.94;;;15.99
70389;BMP280;58659;49.050;8.530;2022-09-29T12:13:20;98611.41;;;16.10
70389;BMP280;58659;49.050;8.530;2022-09-29T12:20:59;98605.41;;;15.80
70389;BMP280;58659;49.050;8.530;2022-09-29T12:23:25;98606.53;;;15.79
70389;BMP280;58659;49.050;8.530;2022-09-29T12:25:57;98615.19;;;15.80
70389;BMP280;58659;49.050;8.530;2022-09-29T12:28:26;98604.53;;;15.83
70389;BMP280;58659;49.050;8.530;2022-09-29T12:30:57;98612.94;;;15.78
70389;BMP280;58659;49.050;8.530;2022-09-29T12:33:34;98605.25;;;15.55
70389;BMP280;58659;49.050;8.530;2022-09-29T12:36:15;98608.03;;;15.64
70389;BMP280;58659;49.050;8.530;2022-09-29T12:41:39;98610.25;;;15.50
70389;BMP280;58659;49.050;8.530;2022-09-29T12:44:17;98612.88;;;15.50
70389;BMP280;58659;49.050;8.530;2022-09-29T12:49:41;98610.19;;;15.69
70389;BMP280;58659;49.050;8.530;2022-09-29T12:52:14;98606.13;;;15.81
70389;BMP280;58659;49.050;8.530;2022-09-29T12:54:47;98606.78;;;15.85
70389;BMP280;58659;49.050;8.530;2022-09-29T12:57:15;98602.06;;;15.76
70389;BMP280;58659;49.050;8.530;2022-09-29T13:02:30;98608.06;;;15.93
70389;BMP280;58659;49.050;8.530;2022-09-29T13:10:14;98611.25;;;16.42
70389;BMP280;58659;49.050;8.530;2022-09-29T13:12:51;98610.06;;;16.84
70389;BMP280;58659;49.050;8.530;2022-09-29T13:27:53;98619.25;;;17.30
70389;BMP280;58659;49.050;8.530;2022-09-29T13:30:29;98625.78;;;17.26
70389;BMP280;58659;49.050;8.530;2022-09-29T13:35:22;98632.34;;;16.96
70389;BMP280;58659;49.050;8.530;2022-09-29T13:37:55;98631.34;;;16.77
70389;BMP280;58659;49.050;8.530;2022-09-29T13:42:49;98628.91;;;16.45
70389;BMP280;58659;49.050;8.530;2022-09-29T13:47:44;98639.44;;;16.45
70389;BMP280;58659;49.050;8.530;2022-09-29T13:52:54;98639.59;;;15.97
70389;BMP280;58659;49.050;8.530;2022-09-29T13:55:52;98633.31;;;16.07
70389;BMP280;58659;49.050;8.530;2022-09-29T13:58:24;98635.97;;;16.19
70389;BMP280;58659;49.050;8.530;2022-09-29T14:00:50;98633.50;;;16.28
70389;BMP280;58659;49.050;8.530;2022-09-29T14:03:32;98644.63;;;16.20
70389;BMP280;58659;49.050;8.530;2022-09-29T14:08:49;98644.34;;;16.02
70389;BMP280;58659;49.050;8.530;2022-09-29T14:18:44;98637.00;;;16.38
70389;BMP280;58659;49.050;8.530;2022-09-29T14:21:12;98643.59;;;16.30
70389;BMP280;58659;49.050;8.530;2022-09-29T14:28:53;98646.34;;;15.98
70389;BMP280;58659;49.050;8.530;2022-09-29T14:31:20;98656.41;;;15.70
70389;BMP280;58659;49.050;8.530;2022-09-29T14:33:46;98652.78;;;15.48
70389;BMP280;58659;49.050;8.530;2022-09-29T14:36:15;98654.41;;;15.10
70389;BMP280;58659;49.050;8.530;2022-09-29T14:38:42;98656.44;;;15.18
70389;BMP280;58659;49.050;8.530;2022-09-29T14:49:37;98654.81;;;15.24
70389;BMP280;58659;49.050;8.530;2022-09-29T14:52:02;98651.56;;;15.01
70389;BMP280;58659;49.050;8.530;2022-09-29T14:54:41;98667.66;;;14.87
70389;BMP280;58659;49.050;8.530;2022-09-29T15:04:43;98667.56;;;14.31
70389;BMP280;58659;49.050;8.530;2022-09-29T15:07:13;98667.38;;;14.18
70389;BMP280;58659;49.050;8.530;2022-09-29T15:09:43;98666.00;;;13.91
70389;BMP280;58659;49.050;8.530;2022-09-29T15:12:17;98665.41;;;13.80
70389;BMP280;58659;49.050;8.530;2022-09-29T15:14:47;98663.31;;;13.68
70389;BMP280;58659;49.050;8.530;2022-09-29T15:25:33;98671.59;;;13.09
70389;BMP280;58659;49.050;8.530;2022-09-29T15:28:19;98644.25;;;12.80
70389;BMP280;58659;49.050;8.530;2022-09-29T15:30:47;98654.38;;;12.78
70389;BMP280;58659;49.050;8.530;2022-09-29T15:35:40;98653.25;;;12.79
70389;BMP280;58659;49.050;8.530;2022-09-29T15:40:34;98654.88;;;12.66
70389;BMP280;58659;49.050;8.530;2022-09-29T15:43:01;98652.34;;;12.58
70389;BMP280;58659;49.050;8.530;2022-09-29T15:45:27;98649.09;;;12.44
70389;BMP280;58659;49.050;8.530;2022-09-29T15:48:03;98651.84;;;12.30
70389;BMP280;58659;49.050;8.530;2022-09-29T15:50:30;98653.38;;;12.27
70389;BMP280;58659;49.050;8.530;2022-09-29T15:52:57;98643.63;;;12.31
70389;BMP280;58659;49.050;8.530;2022-09-29T15:55:25;98648.16;;;12.27
70389;BMP280;58659;49.050;8.530;2022-09-29T15:57:51;98641.03;;;12.28
70389;BMP280;58659;49.050;8.530;2022-09-29T16:02:48;98643.38;;;12.19
70389;BMP280;58659;49.050;8.530;2022-09-29T16:05:19;98656.50;;;12.08
70389;BMP280;58659;49.050;8.530;2022-09-29T16:10:14;98679.88;;;11.85
70389;BMP280;58659;49.050;8.530;2022-09-29T16:12:44;98670.56;;;11.84
70389;BMP280;58659;49.050;8.530;2022-09-29T16:15:14;98679.94;;;11.74
70389;BMP280;58659;49.050;8.530;2022-09-29T16:17:40;98683.00;;;11.62
70389;BMP280;58659;49.050;8.530;2022-09-29T16:20:06;98682.25;;;11.62
70389;BMP280;58659;49.050;8.530;2022-09-29T16:22:31;98689.34;;;11.65
70389;BMP280;58659;49.050;8.530;2022-09-29T16:25:17;98671.03;;;11.65
70389;BMP280;58659;49.050;8.530;2022-09-29T16:30:44;98682.31;;;11.51
70389;BMP280;58659;49.050;8.530;2022-09-29T16:33:13;98681.22;;;11.45
70389;BMP280;58659;49.050;8.530;2022-09-29T16:35:44;98685.31;;;11.42
70389;BMP280;58659;49.050;8.530;2022-09-29T16:40:47;98705.53;;;11.38
70389;BMP280;58659;49.050;8.530;2022-09-29T16:43:31;98702.94;;;11.35
70389;BMP280;58659;49.050;8.530;2022-09-29T16:45:58;98695.09;;;11.31
70389;BMP280;58659;49.050;8.530;2022-09-29T16:48:24;98689.88;;;11.28
70389;BMP280;58659;49.050;8.530;2022-09-29T16:50:52;98684.66;;;11.28
70389;BMP280;58659;49.050;8.530;2022-09-29T16:53:26;98676.47;;;11.22
70389;BMP280;58659;49.050;8.530;2022-09-29T16:55:55;98675.03;;;11.18
70389;BMP280;58659;49.050;8.530;2022-09-29T16:58:21;98679.50;;;11.17
70389;BMP280;58659;49.050;8.530;2022-09-29T17:00:47;98657.06;;;11.23
70389;BMP280;58659;49.050;8.530;2022-09-29T17:03:12;98659.28;;;11.21
70389;BMP280;58659;49.050;8.530;2022-09-29T17:05:40;98675.38;;;11.16
70389;BMP280;58659;49.050;8.530;2022-09-29T17:08:18;98692.19;;;11.08
70389;BMP280;58659;49.050;8.530;2022-09-29T17:10:46;98688.47;;;11.06
70389;BMP280;58659;49.050;8.530;2022-09-29T17:13:12;98677.66;;;11.04
70389;BMP280;58659;49.050;8.530;2022-09-29T17:15:38;98659.75;;;11.02
70389;BMP280;58659;49.050;8.530;2022-09-29T17:18:04;98658.63;;;11.10
70389;BMP280;58659;49.050;8.530;2022-09-29T17:20:29;98682.50;;;11.12
70389;BMP280;58659;49.050;8.530;2022-09-29T17:22:54;98698.91;;;11.16
70389;BMP280;58659;49.050;8.530;2022-09-29T17:25:20;98716.47;;;11.12
70389;BMP280;58659;49.050;8.530;2022-09-29T17:27:46;98739.25;;;11.01
70389;BMP280;58659;49.050;8.530;2022-09-29T17:30:30;98761.69;;;10.88
70389;BMP280;58659;49.050;8.530;2022-09-29T17:32:55;98756.50;;;10.70
70389;BMP280;58659;49.050;8.530;2022-09-29T17:35:23;98744.53;;;10.55
70389;BMP280;58659;49.050;8.530;2022-09-29T17:37:49;98725.50;;;10.47
70389;BMP280;58659;49.050;8.530;2022-09-29T17:40:24;98709.84;;;10.44
70389;BMP280;58659;49.050;8.530;2022-09-29T17:42:51;98702.00;;;10.30
70389;BMP280;58659;49.050;8.530;2022-09-29T17:45:18;98706.09;;;10.27
70389;BMP280;58659;49.050;8.530;2022-09-29T17:47:44;98705.72;;;10.25
70389;BMP280;58659;49.050;8.530;2022-09-29T17:50:18;98703.88;;;10.22
70389;BMP280;58659;49.050;8.530;2022-09-29T17:52:44;98705.34;;;10.23
70389;BMP280;58659;49.050;8.530;2022-09-29T17:55:10;98708.34;;;10.25
70389;BMP280;58659;49.050;8.530;2022-09-29T17:57:36;98709.44;;;10.24